Time;durP1;ratioP1;P1;durP2;ratioP2;P2;SDS_P1;SDS_P2;PMS_P1;PMS_P2;Temp;Humidity;BMP_temperature;BMP_pressure;BME280_temperature;BME280_humidity;BME280_pressure;Samples;Min_cycle;Max_cycle;Signal;HPM_P1;HPM_P2
2022/10/14 00:00:22;;;;;;;26.80;13.67;;;;;;;9.34;100.00;100580.42;1795159;78;22684;-46
2022/10/14 00:02:48;;;;;;;19.87;11.55;;;;;;;9.33;100.00;100583.56;1764098;79;21099;-46
2022/10/14 00:05:15;;;;;;;22.98;12.18;;;;;;;9.34;100.00;100587.14;1732687;81;21848;-48
2022/10/14 00:07:43;;;;;;;20.65;12.82;;;;;;;9.37;100.00;100588.37;1712236;81;21085;-46
2022/10/14 00:10:11;;;;;;;22.87;12.75;;;;;;;9.38;100.00;100583.41;1705680;83;21523;-45
2022/10/14 00:12:39;;;;;;;18.37;10.50;;;;;;;9.40;100.00;100585.59;1705934;83;21511;-45
2022/10/14 00:15:06;;;;;;;21.33;8.98;;;;;;;9.40;100.00;100581.11;1708193;83;21057;-45
2022/10/14 00:17:34;;;;;;;22.32;10.45;;;;;;;9.43;100.00;100584.17;1707425;83;21957;-47
2022/10/14 00:20:01;;;;;;;17.10;10.50;;;;;;;9.44;100.00;100575.19;1679495;81;21041;-46
2022/10/14 00:22:28;;;;;;;17.15;9.98;;;;;;;9.45;100.00;100581.83;1731711;81;21043;-46
2022/10/14 00:24:55;;;;;;;16.67;9.13;;;;;;;9.47;100.00;100584.02;1714111;81;21093;-48
2022/10/14 00:27:21;;;;;;;14.68;9.80;;;;;;;9.49;100.00;100576.80;1734061;81;21030;-46
2022/10/14 00:29:48;;;;;;;15.70;8.18;;;;;;;9.49;100.00;100570.54;1734847;81;21793;-46
2022/10/14 00:32:14;;;;;;;14.40;7.72;;;;;;;9.51;100.00;100574.06;1730996;81;21057;-47
2022/10/14 00:34:41;;;;;;;9.80;7.30;;;;;;;9.52;100.00;100573.61;1736147;81;21053;-45
2022/10/14 00:37:07;;;;;;;10.13;7.28;;;;;;;9.53;100.00;100569.50;1730361;81;21347;-47
2022/10/14 00:39:33;;;;;;;13.08;8.28;;;;;;;9.53;100.00;100565.47;1740536;81;20974;-47
2022/10/14 00:42:00;;;;;;;15.15;7.65;;;;;;;9.55;100.00;100572.15;1736905;81;21807;-47
2022/10/14 00:44:32;;;;;;;14.38;7.45;;;;;;;9.55;100.00;100564.97;1718007;81;21016;-47
2022/10/14 00:47:00;;;;;;;11.97;7.15;;;;;;;9.56;100.00;100566.73;1710059;81;21469;-46
2022/10/14 00:49:30;;;;;;;14.15;7.70;;;;;;;9.55;100.00;100564.97;1704404;82;20970;-46
2022/10/14 00:52:05;;;;;;;11.00;5.80;;;;;;;9.56;100.00;100564.50;1686591;82;21013;-47
2022/10/14 00:54:39;;;;;;;7.17;6.25;;;;;;;9.56;100.00;100558.67;1715609;82;23054;-46
2022/10/14 00:57:06;;;;;;;14.15;7.25;;;;;;;9.57;100.00;100559.55;1708090;82;21462;-46
2022/10/14 00:59:32;;;;;;;13.72;6.78;;;;;;;9.57;100.00;100563.12;1687393;82;21043;-48
2022/10/14 01:01:58;;;;;;;11.30;7.12;;;;;;;9.58;100.00;100555.94;1678794;83;21173;-46
2022/10/14 01:04:25;;;;;;;9.38;5.40;;;;;;;9.57;100.00;100555.05;1680774;83;21091;-48
2022/10/14 01:07:13;;;;;;;10.30;4.78;;;;;;;9.56;100.00;100550.60;1716023;81;21982;-46
2022/10/14 01:10:16;;;;;;;8.83;4.92;;;;;;;9.56;100.00;100552.41;1732332;80;21101;-48
2022/10/14 01:13:20;;;;;;;9.65;5.80;;;;;;;9.54;100.00;100553.80;1730163;80;21100;-47
2022/10/14 01:16:11;;;;;;;6.22;4.08;;;;;;;9.54;100.00;100551.11;1736986;80;21313;-47
2022/10/14 01:19:22;;;;;;;6.75;4.78;;;;;;;9.52;100.00;100549.42;1731833;80;21611;-48
2022/10/14 01:21:52;;;;;;;5.85;3.22;;;;;;;9.52;100.00;100544.05;1734020;80;21879;-47
2022/10/14 01:24:42;;;;;;;7.70;4.40;;;;;;;9.50;100.00;100542.74;1733809;80;21085;-47
2022/10/14 01:27:20;;;;;;;5.10;3.22;;;;;;;9.48;100.00;100541.44;1734401;80;21108;-49
2022/10/14 01:30:10;;;;;;;7.65;3.90;;;;;;;9.47;100.00;100538.80;1735980;80;21163;-49
2022/10/14 01:32:51;;;;;;;6.45;3.95;;;;;;;9.44;100.00;100541.59;1726012;80;21200;-47
2022/10/14 01:35:44;;;;;;;6.58;3.12;;;;;;;9.42;100.00;100542.98;1734582;80;22679;-47
2022/10/14 01:38:25;;;;;;;6.03;3.10;;;;;;;9.41;100.00;100541.68;1730829;80;21069;-49
2022/10/14 01:40:59;;;;;;;3.80;2.67;;;;;;;9.38;100.00;100539.08;1733059;80;21058;-48
2022/10/14 01:43:26;;;;;;;4.58;2.55;;;;;;;9.36;100.00;100540.92;1705443;80;27334;-47
2022/10/14 01:45:53;;;;;;;5.60;2.83;;;;;;;9.34;100.00;100543.69;1732812;80;21084;-47
2022/10/14 01:48:22;;;;;;;6.30;3.05;;;;;;;9.29;100.00;100536.21;1736259;80;21867;-49
2022/10/14 01:50:50;;;;;;;7.70;3.87;;;;;;;9.29;100.00;100544.73;1732038;80;21116;-49
2022/10/14 01:53:27;;;;;;;7.05;2.37;;;;;;;9.26;100.00;100552.44;1678373;83;21059;-47
2022/10/14 01:55:55;;;;;;;7.72;2.92;;;;;;;9.23;100.00;100545.81;1732525;80;20986;-47
2022/10/14 01:58:25;;;;;;;3.55;2.72;;;;;;;9.21;100.00;100547.66;1730859;80;21015;-48
2022/10/14 02:00:51;;;;;;;4.78;2.25;;;;;;;9.19;100.00;100549.95;1728367;81;21822;-47
2022/10/14 02:03:20;;;;;;;2.02;1.80;;;;;;;9.16;100.00;100544.23;1728082;81;21108;-47
2022/10/14 02:06:03;;;;;;;6.12;2.92;;;;;;;9.13;100.00;100540.75;1726010;81;22169;-47
2022/10/14 02:09:10;;;;;;;7.20;2.00;;;;;;;9.09;100.00;100544.89;1731991;81;21080;-47
2022/10/14 02:11:45;;;;;;;4.95;1.77;;;;;;;9.06;100.00;100546.77;1729043;81;21003;-49
2022/10/14 02:14:45;;;;;;;4.70;1.37;;;;;;;9.04;100.00;100541.44;1729384;81;22124;-48
2022/10/14 02:17:24;;;;;;;3.75;1.95;;;;;;;9.02;100.00;100542.40;1705776;81;21105;-47
2022/10/14 02:19:59;;;;;;;5.62;1.70;;;;;;;9.01;100.00;100545.58;1731570;81;20987;-47
2022/10/14 02:22:40;;;;;;;3.75;1.92;;;;;;;9.00;100.00;100545.16;1690839;81;21038;-46
2022/10/14 02:25:20;;;;;;;7.10;2.45;;;;;;;9.01;100.00;100541.55;1728624;81;21081;-48
2022/10/14 02:27:47;;;;;;;3.27;1.57;;;;;;;9.00;100.00;100538.91;1728583;81;21787;-47
2022/10/14 02:30:15;;;;;;;3.62;1.72;;;;;;;8.97;100.00;100538.52;1731252;81;20998;-47
2022/10/14 02:32:42;;;;;;;3.42;1.45;;;;;;;8.95;100.00;100540.36;1726656;81;21069;-47
2022/10/14 02:35:13;;;;;;;3.37;2.22;;;;;;;8.92;100.00;100537.79;1728687;81;21325;-47
2022/10/14 02:37:40;;;;;;;4.15;2.62;;;;;;;8.91;100.00;100537.83;1705235;81;21527;-48
2022/10/14 02:40:11;;;;;;;8.78;2.27;;;;;;;8.90;100.00;100536.06;1727969;81;21880;-47
2022/10/14 02:42:37;;;;;;;4.85;2.85;;;;;;;8.89;100.00;100543.23;1727984;81;21058;-48
2022/10/14 02:45:05;;;;;;;4.83;2.00;;;;;;;8.89;100.00;100535.64;1728542;81;21029;-48
2022/10/14 02:47:31;;;;;;;6.70;2.67;;;;;;;8.87;100.00;100535.69;1729622;81;21559;-47
2022/10/14 02:49:57;;;;;;;3.40;2.50;;;;;;;8.86;100.00;100537.95;1729460;81;21053;-47
2022/10/14 02:52:24;;;;;;;4.55;2.05;;;;;;;8.84;100.00;100537.59;1730767;81;21801;-48
2022/10/14 02:54:51;;;;;;;5.00;2.30;;;;;;;8.81;100.00;100534.53;1730091;81;21493;-49
2022/10/14 02:57:18;;;;;;;3.70;1.97;;;;;;;8.79;100.00;100536.36;1732112;81;21091;-48
2022/10/14 02:59:46;;;;;;;4.30;2.52;;;;;;;8.78;100.00;100538.63;1728628;81;21056;-47
2022/10/14 03:02:13;;;;;;;4.85;2.47;;;;;;;8.76;100.00;100535.13;1721492;81;21053;-47
2022/10/14 03:04:40;;;;;;;2.02;1.67;;;;;;;8.75;100.00;100533.83;1721738;81;21927;-47
2022/10/14 03:07:07;;;;;;;5.15;1.65;;;;;;;8.74;100.00;100535.63;1724021;81;21101;-47
2022/10/14 03:09:36;;;;;;;4.05;1.80;;;;;;;8.74;100.00;100538.31;1721514;81;21112;-47
2022/10/14 03:12:05;;;;;;;4.08;1.92;;;;;;;8.74;100.00;100541.00;1740265;80;21073;-47
2022/10/14 03:14:33;;;;;;;2.27;1.67;;;;;;;8.75;100.00;100539.20;1680401;83;21176;-48
2022/10/14 03:17:02;;;;;;;4.90;2.77;;;;;;;8.75;100.00;100531.14;1723343;81;21088;-48
2022/10/14 03:19:31;;;;;;;4.47;3.22;;;;;;;8.75;100.00;100537.39;1723044;81;22157;-47
2022/10/14 03:21:57;;;;;;;7.17;2.58;;;;;;;8.73;100.00;100538.77;1720991;81;21069;-49
2022/10/14 03:24:25;;;;;;;6.35;2.95;;;;;;;8.72;100.00;100541.03;1725250;81;21117;-48
2022/10/14 03:26:53;;;;;;;4.47;2.40;;;;;;;8.71;100.00;100535.70;1722312;81;21084;-48
2022/10/14 03:29:22;;;;;;;2.98;1.77;;;;;;;8.69;100.00;100533.06;1727788;81;21828;-49
2022/10/14 03:31:50;;;;;;;4.03;1.52;;;;;;;8.69;100.00;100534.40;1722397;81;21003;-48
2022/10/14 03:34:21;;;;;;;8.40;2.87;;;;;;;8.68;100.00;100535.31;1729390;81;21858;-47
2022/10/14 03:36:49;;;;;;;5.53;2.70;;;;;;;8.68;100.00;100535.78;1722293;81;21532;-47
2022/10/14 03:39:17;;;;;;;8.85;3.27;;;;;;;8.66;100.00;100541.67;1723571;81;20981;-48
2022/10/14 03:41:46;;;;;;;3.55;2.60;;;;;;;8.66;100.00;100541.22;1729228;81;22498;-47
2022/10/14 03:44:14;;;;;;;2.45;1.80;;;;;;;8.65;100.00;100539.91;1731205;81;21045;-47
2022/10/14 03:46:43;;;;;;;2.70;1.65;;;;;;;8.62;100.00;100535.50;1729241;81;21011;-49
2022/10/14 03:49:10;;;;;;;3.22;1.40;;;;;;;8.60;100.00;100536.00;1724217;81;21015;-48
2022/10/14 03:51:38;;;;;;;4.15;2.25;;;;;;;8.58;100.00;100538.33;1700517;81;21033;-47
2022/10/14 03:54:09;;;;;;;6.42;1.75;;;;;;;8.54;100.00;100533.95;1724113;81;22552;-48
2022/10/14 03:56:36;;;;;;;7.33;2.87;;;;;;;8.49;100.00;100540.80;1722580;81;21069;-46
2022/10/14 03:59:04;;;;;;;2.40;1.45;;;;;;;8.47;100.00;100533.70;1722988;81;21015;-46
2022/10/14 04:01:31;;;;;;;6.08;2.15;;;;;;;8.46;100.00;100539.98;1731950;80;21116;-48
2022/10/14 04:04:02;;;;;;;3.30;1.80;;;;;;;8.47;100.00;100540.41;1725309;80;21065;-47
2022/10/14 04:06:30;;;;;;;2.62;1.72;;;;;;;8.47;100.00;100543.09;1735226;80;21843;-46
2022/10/14 04:08:57;;;;;;;3.37;2.25;;;;;;;8.47;100.00;100535.05;1730301;80;21496;-48
2022/10/14 04:11:25;;;;;;;4.30;1.85;;;;;;;8.48;100.00;100545.74;1730639;80;21061;-48
2022/10/14 04:13:59;;;;;;;10.48;2.50;;;;;;;8.48;100.00;100536.35;1731063;80;21108;-47
2022/10/14 04:16:26;;;;;;;5.50;2.08;;;;;;;8.47;100.00;100543.09;1734160;80;21092;-49
2022/10/14 04:18:57;;;;;;;5.67;2.50;;;;;;;8.45;100.00;100539.56;1729084;80;21835;-48
2022/10/14 04:21:24;;;;;;;2.92;2.30;;;;;;;8.43;100.00;100538.72;1731863;80;21085;-48
2022/10/14 04:23:51;;;;;;;3.50;2.17;;;;;;;8.41;100.00;100536.56;1732188;80;21447;-47
2022/10/14 04:26:19;;;;;;;4.87;3.15;;;;;;;8.39;100.00;100540.62;1733649;81;21694;-48
2022/10/14 04:28:46;;;;;;;7.55;2.72;;;;;;;8.39;100.00;100540.62;1695646;82;21058;-47
2022/10/14 04:31:14;;;;;;;3.37;2.47;;;;;;;8.40;100.00;100541.50;1730409;80;21932;-48
2022/10/14 04:33:45;;;;;;;5.17;3.08;;;;;;;8.39;100.00;100539.73;1733051;80;21530;-48
2022/10/14 04:36:14;;;;;;;2.90;2.50;;;;;;;8.38;100.00;100541.54;1730075;80;21081;-47
2022/10/14 04:38:41;;;;;;;4.90;2.95;;;;;;;8.37;100.00;100537.55;1732515;80;21002;-46
2022/10/14 04:41:09;;;;;;;7.20;2.87;;;;;;;8.36;100.00;100543.38;1733498;80;21621;-49
2022/10/14 04:43:35;;;;;;;4.75;3.12;;;;;;;8.35;100.00;100546.52;1736252;80;21731;-47
2022/10/14 04:46:04;;;;;;;3.27;2.70;;;;;;;8.36;100.00;100544.72;1739904;80;21579;-47
2022/10/14 04:48:30;;;;;;;7.12;2.92;;;;;;;8.37;100.00;100545.60;1734524;80;21330;-47
2022/10/14 04:50:57;;;;;;;5.37;2.58;;;;;;;8.38;100.00;100540.66;1734392;80;21638;-46
2022/10/14 04:53:42;;;;;;;4.35;2.10;;;;;;;8.37;100.00;100546.48;1728377;80;21070;-47
2022/10/14 04:56:28;;;;;;;3.80;2.27;;;;;;;8.37;100.00;100547.82;1730793;80;21921;-46
2022/10/14 04:58:57;;;;;;;4.90;4.20;;;;;;;8.38;100.00;100550.93;1729435;80;21093;-47
2022/10/14 05:01:25;;;;;;;7.58;4.50;;;;;;;8.38;100.00;100551.39;1727917;81;21424;-47
2022/10/14 05:03:52;;;;;;;6.80;4.67;;;;;;;8.38;100.00;100551.39;1725841;81;21087;-46
2022/10/14 05:06:18;;;;;;;7.47;4.83;;;;;;;8.38;100.00;100547.36;1726083;81;21049;-46
2022/10/14 05:08:47;;;;;;;10.58;4.70;;;;;;;8.38;100.00;100543.34;1733086;81;21955;-47
2022/10/14 05:11:13;;;;;;;9.13;4.28;;;;;;;8.38;100.00;100550.05;1733295;81;21123;-46
2022/10/14 05:13:42;;;;;;;6.65;4.08;;;;;;;8.37;100.00;100561.23;1725361;81;21012;-46
2022/10/14 05:16:08;;;;;;;6.45;3.45;;;;;;;8.35;100.00;100557.25;1727015;81;21026;-46
2022/10/14 05:18:35;;;;;;;5.12;3.00;;;;;;;8.35;100.00;100560.39;1728979;81;21109;-47
2022/10/14 05:21:04;;;;;;;4.58;3.22;;;;;;;8.35;100.00;100551.88;1658144;83;21793;-50
2022/10/14 05:23:39;;;;;;;5.47;3.87;;;;;;;8.36;100.00;100551.42;1722429;81;21080;-48
2022/10/14 05:26:09;;;;;;;9.45;4.00;;;;;;;8.40;100.00;100556.26;1721387;81;21022;-47
2022/10/14 05:28:39;;;;;;;6.95;3.52;;;;;;;8.40;100.00;100562.51;1721979;81;21068;-48
2022/10/14 05:31:06;;;;;;;6.83;3.15;;;;;;;8.41;100.00;100564.27;1724206;81;21109;-48
2022/10/14 05:33:36;;;;;;;5.80;3.80;;;;;;;8.45;100.00;100562.37;1646921;84;21945;-47
2022/10/14 05:36:03;;;;;;;7.40;3.27;;;;;;;8.50;100.00;100566.72;1680852;83;21574;-47
2022/10/14 05:38:32;;;;;;;4.15;3.35;;;;;;;8.54;100.00;100566.15;1726866;81;21060;-47
2022/10/14 05:41:00;;;;;;;5.65;4.15;;;;;;;8.60;100.00;100565.98;1722456;81;21520;-46
2022/10/14 05:43:27;;;;;;;7.35;3.80;;;;;;;8.63;100.00;100562.76;1724123;81;21089;-48
2022/10/14 05:45:54;;;;;;;6.55;2.58;;;;;;;8.69;100.00;100575.12;1646944;84;21856;-46
2022/10/14 05:48:21;;;;;;;4.22;2.30;;;;;;;8.72;100.00;100574.59;1721134;81;21070;-47
2022/10/14 05:50:48;;;;;;;4.22;3.62;;;;;;;8.78;100.00;100572.64;1722867;81;21104;-48
2022/10/14 05:53:16;;;;;;;244.95;33.00;;;;;;;8.82;100.00;100575.67;1720613;81;21073;-48
2022/10/14 05:55:45;;;;;;;20.85;8.33;;;;;;;8.87;100.00;100577.30;1723862;81;21090;-46
2022/10/14 05:58:12;;;;;;;27.75;7.70;;;;;;;8.93;100.00;100573.58;1723162;81;21836;-47
2022/10/14 06:00:41;;;;;;;9.08;5.70;;;;;;;9.00;100.00;100574.70;1726917;81;21586;-48
2022/10/14 06:03:12;;;;;;;12.50;6.22;;;;;;;9.06;100.00;100573.17;1732915;81;21132;-48
2022/10/14 06:05:39;;;;;;;16.60;6.90;;;;;;;9.11;100.00;100581.08;1728340;81;21598;-46
2022/10/14 06:08:06;;;;;;;18.65;6.37;;;;;;;9.17;100.00;100581.38;1725538;81;21077;-47
2022/10/14 06:10:36;;;;;;;9.33;5.40;;;;;;;9.22;100.00;100580.31;1725252;81;21543;-46
2022/10/14 06:13:03;;;;;;;9.85;6.70;;;;;;;9.29;100.00;100584.57;1730035;81;21109;-45
2022/10/14 06:15:30;;;;;;;16.42;8.40;;;;;;;9.35;100.00;100580.38;1729716;81;21034;-46
2022/10/14 06:17:57;;;;;;;14.40;5.08;;;;;;;9.41;100.00;100577.50;1732829;81;21040;-47
2022/10/14 06:20:24;;;;;;;9.63;4.25;;;;;;;9.49;100.00;100584.86;1685888;81;20994;-47
2022/10/14 06:22:51;;;;;;;8.68;3.60;;;;;;;9.57;100.00;100585.97;1731641;81;22133;-47
2022/10/14 06:25:18;;;;;;;11.83;2.92;;;;;;;9.66;100.00;100584.80;1730214;81;21064;-48
2022/10/14 06:27:46;;;;;;;10.85;3.10;;;;;;;9.72;100.00;100585.48;1728992;81;21076;-49
2022/10/14 06:30:14;;;;;;;7.60;2.35;;;;;;;9.80;100.00;100583.42;1731688;81;21319;-46
2022/10/14 06:32:41;;;;;;;5.42;3.77;;;;;;;9.87;100.00;100590.82;1730037;81;21081;-47
2022/10/14 06:35:08;;;;;;;5.58;2.62;;;;;;;9.96;100.00;100589.65;1731209;81;23160;-48
2022/10/14 06:37:36;;;;;;;5.67;2.98;;;;;;;10.04;100.00;100588.93;1728942;81;21108;-46
2022/10/14 06:40:04;;;;;;;9.13;2.60;;;;;;;10.10;100.00;100584.25;1732574;81;20975;-46
2022/10/14 06:42:33;;;;;;;8.35;3.83;;;;;;;10.18;100.00;100589.41;1730874;81;21442;-47
2022/10/14 06:45:00;;;;;;;8.58;3.60;;;;;;;10.26;100.00;100590.50;1731959;81;21005;-47
2022/10/14 06:47:26;;;;;;;8.23;4.03;;;;;;;10.32;100.00;100591.16;1732953;81;21705;-49
2022/10/14 06:49:52;;;;;;;10.95;4.17;;;;;;;10.36;100.00;100591.48;1663570;84;21390;-47
2022/10/14 06:52:20;;;;;;;6.00;3.72;;;;;;;10.41;100.00;100593.55;1736090;81;20975;-48
2022/10/14 06:54:46;;;;;;;8.30;4.40;;;;;;;10.45;100.00;100591.64;1733614;81;20969;-46
2022/10/14 06:57:13;;;;;;;11.63;4.75;;;;;;;10.45;100.00;100604.63;1728753;81;21031;-46
2022/10/14 06:59:40;;;;;;;12.78;5.28;;;;;;;10.46;100.00;100596.09;1727494;81;21530;-47
2022/10/14 07:02:08;;;;;;;10.18;5.78;;;;;;;10.48;100.00;100598.23;1731314;80;20986;-46
2022/10/14 07:04:35;;;;;;;8.33;5.30;;;;;;;10.47;100.00;100587.94;1732351;80;21002;-46
2022/10/14 07:07:02;;;;;;;7.15;4.90;;;;;;;10.50;100.00;100586.97;1733651;80;21013;-47
2022/10/14 07:09:28;;;;;;;7.53;5.15;;;;;;;10.54;100.00;100585.94;1728732;80;21085;-47
2022/10/14 07:11:54;;;;;;;8.10;4.53;;;;;;;10.58;100.00;100584.41;1731403;80;21799;-48
2022/10/14 07:14:21;;;;;;;7.42;4.22;;;;;;;10.63;100.00;100585.63;1732331;80;20985;-49
2022/10/14 07:16:49;;;;;;;9.93;4.28;;;;;;;10.69;100.00;100581.36;1731805;80;21101;-47
2022/10/14 07:19:16;;;;;;;8.45;4.95;;;;;;;10.76;100.00;100582.89;1731360;80;21104;-47
2022/10/14 07:21:44;;;;;;;6.28;3.62;;;;;;;10.83;100.00;100579.50;1733774;80;21263;-49
2022/10/14 07:24:12;;;;;;;9.40;4.30;;;;;;;10.90;100.00;100575.17;1731614;80;21831;-48
2022/10/14 07:26:39;;;;;;;13.78;4.58;;;;;;;10.98;100.00;100572.20;1731728;80;21391;-47
2022/10/14 07:29:05;;;;;;;7.35;5.20;;;;;;;11.07;100.00;100573.20;1732602;80;21570;-47
2022/10/14 07:31:33;;;;;;;13.15;4.05;;;;;;;11.07;100.00;100573.20;1730369;80;21049;-48
2022/10/14 07:34:00;;;;;;;10.68;6.42;;;;;;;11.12;100.00;100579.33;1699139;82;21187;-48
2022/10/14 07:36:27;;;;;;;9.45;6.67;;;;;;;11.18;100.00;100581.78;1732355;80;22603;-49
2022/10/14 07:38:53;;;;;;;12.20;6.85;;;;;;;11.30;100.00;100577.75;1733755;80;21111;-48
2022/10/14 07:41:22;;;;;;;14.93;7.33;;;;;;;11.30;100.00;100577.75;1733211;80;21116;-48
2022/10/14 07:43:51;;;;;;;13.93;8.13;;;;;;;11.37;100.00;100584.66;1733503;80;21081;-47
2022/10/14 07:46:28;;;;;;;12.55;8.15;;;;;;;11.42;100.00;100587.16;1732435;80;21026;-50
2022/10/14 07:48:48;;;;;;;9.98;7.10;;;;;;;11.45;100.00;100581.67;1734382;80;22654;-49
2022/10/14 07:51:15;;;;;;;13.80;7.62;;;;;;;11.49;100.00;100584.17;1731247;80;21615;-48
2022/10/14 07:53:41;;;;;;;11.48;8.05;;;;;;;11.55;100.00;100586.66;1733200;80;21055;-48
2022/10/14 07:56:08;;;;;;;16.77;8.03;;;;;;;11.62;100.00;100586.81;1730059;80;21603;-47
2022/10/14 07:58:34;;;;;;;14.23;7.78;;;;;;;11.68;100.00;100584.34;1695438;82;21073;-48
2022/10/14 08:01:02;;;;;;;12.58;8.13;;;;;;;11.71;100.00;100586.92;1733609;80;22081;-47
2022/10/14 08:03:29;;;;;;;9.20;6.15;;;;;;;11.74;100.00;100580.95;1737635;80;21108;-47
2022/10/14 08:06:00;;;;;;;8.50;4.83;;;;;;;11.79;100.00;100579.91;1740790;80;21101;-48
2022/10/14 08:08:27;;;;;;;8.88;4.58;;;;;;;11.83;100.00;100575.66;1736739;80;21073;-50
2022/10/14 08:11:08;;;;;;;6.25;3.67;;;;;;;11.86;100.00;100582.30;1737365;80;21506;-50
2022/10/14 08:13:35;;;;;;;6.73;4.00;;;;;;;11.94;100.00;100579.28;1732289;80;21954;-48
2022/10/14 08:16:02;;;;;;;14.15;4.90;;;;;;;12.01;100.00;100577.61;1738892;80;21025;-49
2022/10/14 08:18:30;;;;;;;9.13;3.55;;;;;;;12.09;100.00;100572.78;1737852;80;21065;-49
2022/10/14 08:20:56;;;;;;;9.08;3.22;;;;;;;12.19;100.00;100573.28;1737369;80;21061;-50
2022/10/14 08:23:23;;;;;;;7.92;3.35;;;;;;;12.31;100.00;100575.47;1737751;80;21032;-49
2022/10/14 08:25:49;;;;;;;13.38;3.47;;;;;;;12.41;100.00;100580.02;1740776;80;21860;-47
2022/10/14 08:28:16;;;;;;;9.63;3.00;;;;;;;12.48;100.00;100570.70;1736603;80;21077;-49
2022/10/14 08:30:42;;;;;;;11.35;3.87;;;;;;;12.54;100.00;100577.19;1733376;80;21265;-49
2022/10/14 08:33:09;;;;;;;9.25;3.35;;;;;;;12.59;100.00;100575.15;1733542;80;21013;-49
2022/10/14 08:35:35;;;;;;;9.98;2.08;;;;;;;12.64;100.00;100571.80;1740328;80;21088;-48
2022/10/14 08:38:02;;;;;;;2.98;1.55;;;;;;;12.69;100.00;100570.23;1737022;80;22602;-48
2022/10/14 08:40:32;;;;;;;5.35;1.45;;;;;;;12.74;100.00;100571.80;1733459;80;21547;-48
2022/10/14 08:43:28;;;;;;;8.30;1.52;;;;;;;12.80;100.00;100567.47;1739392;80;21024;-49
2022/10/14 08:45:57;;;;;;;6.97;1.57;;;;;;;12.88;100.00;100565.30;1735968;80;21143;-49
2022/10/14 08:48:24;;;;;;;11.30;2.12;;;;;;;12.99;100.00;100565.30;1701932;80;21082;-49
2022/10/14 08:51:06;;;;;;;5.40;1.77;;;;;;;13.02;100.00;100563.78;1741384;80;21751;-50
2022/10/14 08:53:37;;;;;;;6.83;1.60;;;;;;;13.04;100.00;100561.90;1738010;80;21148;-50
2022/10/14 08:56:04;;;;;;;5.33;2.12;;;;;;;13.05;100.00;100560.95;1741075;80;21009;-51
2022/10/14 08:58:45;;;;;;;8.70;1.57;;;;;;;13.04;100.00;100563.25;1736312;80;21565;-50
2022/10/14 09:01:32;;;;;;;6.00;1.70;;;;;;;13.02;100.00;100561.96;1741635;80;21029;-49
2022/10/14 09:04:02;;;;;;;6.42;1.32;;;;;;;13.01;100.00;100564.29;1723672;81;21942;-48
2022/10/14 09:06:35;;;;;;;6.65;1.85;;;;;;;12.98;100.00;100561.72;1663584;84;21160;-50
2022/10/14 09:09:21;;;;;;;2.58;1.45;;;;;;;12.96;100.00;100566.30;1727526;81;21061;-49
2022/10/14 09:11:55;;;;;;;6.97;1.40;;;;;;;12.94;100.00;100560.55;1721714;81;21104;-48
2022/10/14 09:14:28;;;;;;;6.83;1.65;;;;;;;12.91;100.00;100563.41;1725054;81;21093;-50
2022/10/14 09:17:05;;;;;;;8.38;1.90;;;;;;;12.88;100.00;100568.00;1725515;81;21938;-48
2022/10/14 09:19:38;;;;;;;6.15;1.47;;;;;;;12.84;100.00;100570.42;1727770;81;21349;-48
2022/10/14 09:22:10;;;;;;;11.20;4.40;;;;;;;12.83;100.00;100567.81;1693230;81;21081;-49
2022/10/14 09:24:37;;;;;;;5.28;2.25;;;;;;;12.80;100.00;100572.87;1723772;81;21246;-49
2022/10/14 09:27:13;;;;;;;6.08;2.42;;;;;;;12.79;100.00;100568.87;1721147;81;21406;-49
2022/10/14 09:29:53;;;;;;;6.15;3.47;;;;;;;12.74;100.00;100567.75;1724063;81;21800;-49
2022/10/14 09:32:39;;;;;;;8.80;3.27;;;;;;;12.70;100.00;100567.47;1723521;81;21765;-48
2022/10/14 09:35:37;;;;;;;8.83;2.92;;;;;;;12.68;100.00;100566.64;1687598;81;21492;-48
2022/10/14 09:38:06;;;;;;;7.28;2.17;;;;;;;12.64;100.00;100556.94;1709931;81;21517;-49
2022/10/14 09:40:43;;;;;;;6.78;2.40;;;;;;;12.60;100.00;100559.35;1682064;83;21352;-48
2022/10/14 09:43:15;;;;;;;5.90;2.22;;;;;;;12.60;100.00;100557.12;1727699;81;21695;-48
2022/10/14 09:46:02;;;;;;;6.35;2.45;;;;;;;12.57;100.00;100548.70;1723394;81;21010;-48
2022/10/14 09:48:36;;;;;;;8.00;2.15;;;;;;;12.56;100.00;100557.75;1724212;81;21027;-50
2022/10/14 09:51:05;;;;;;;5.28;2.10;;;;;;;12.57;100.00;100552.76;1725818;81;21482;-50
2022/10/14 09:53:39;;;;;;;5.00;3.00;;;;;;;12.59;100.00;100548.14;1729821;81;21505;-47
2022/10/14 09:56:07;;;;;;;8.08;2.67;;;;;;;12.60;100.00;100547.67;1730995;81;21851;-50
2022/10/14 09:58:39;;;;;;;8.08;2.80;;;;;;;12.61;100.00;100545.37;1726342;81;20979;-49
2022/10/14 10:01:11;;;;;;;7.05;2.98;;;;;;;12.62;100.00;100548.02;1722253;81;21521;-50
2022/10/14 10:03:34;;;;;;;7.67;2.27;;;;;;;12.63;100.00;100547.55;1732651;80;20982;-49
2022/10/14 10:06:11;;;;;;;13.48;4.37;;;;;;;12.64;100.00;100551.53;1733010;80;21001;-49
2022/10/14 10:08:50;;;;;;;10.80;4.15;;;;;;;12.65;100.00;100554.65;1697993;82;22449;-48
2022/10/14 10:11:19;;;;;;;7.45;2.65;;;;;;;12.66;100.00;100553.70;1719826;80;21447;-50
2022/10/14 10:13:47;;;;;;;6.25;2.35;;;;;;;12.70;100.00;100549.02;1694158;81;20979;-49
2022/10/14 10:16:24;;;;;;;5.65;1.65;;;;;;;12.71;100.00;100549.44;1732607;80;21372;-49
2022/10/14 10:18:54;;;;;;;7.65;2.10;;;;;;;12.74;100.00;100550.66;1730927;80;21081;-48
2022/10/14 10:21:26;;;;;;;3.35;1.00;;;;;;;12.77;100.00;100554.08;1731553;80;21849;-48
2022/10/14 10:23:58;;;;;;;7.55;1.20;;;;;;;12.80;100.00;100551.26;1734940;80;21189;-49
2022/10/14 10:26:32;;;;;;;2.83;1.00;;;;;;;12.84;100.00;100557.42;1738816;80;21034;-49
2022/10/14 10:29:01;;;;;;;5.42;1.50;;;;;;;12.86;100.00;100549.63;1736543;80;21420;-50
2022/10/14 10:31:42;;;;;;;3.12;0.90;;;;;;;12.89;100.00;100550.84;1732980;80;21567;-48
2022/10/14 10:34:30;;;;;;;5.28;1.17;;;;;;;12.95;100.00;100550.16;1731605;80;21938;-48
2022/10/14 10:37:11;;;;;;;11.83;1.40;;;;;;;12.97;100.00;100545.09;1734746;80;21057;-49
2022/10/14 10:40:07;;;;;;;6.97;1.40;;;;;;;13.00;100.00;100546.78;1736825;80;21110;-48
2022/10/14 10:42:50;;;;;;;5.85;1.25;;;;;;;13.01;100.00;100549.42;1707173;80;21085;-50
2022/10/14 10:45:43;;;;;;;5.10;1.30;;;;;;;13.03;100.00;100550.20;1727759;80;21062;-49
2022/10/14 10:48:48;;;;;;;7.62;2.92;;;;;;;13.03;100.00;100539.39;1718381;80;23115;-50
2022/10/14 10:51:35;;;;;;;3.25;1.50;;;;;;;13.02;100.00;100534.94;1735078;80;22001;-48
2022/10/14 10:54:20;;;;;;;2.72;1.00;;;;;;;13.02;100.00;100538.98;1737236;80;21508;-47
2022/10/14 10:56:56;;;;;;;2.85;0.80;;;;;;;13.02;100.00;100534.94;1730023;80;21065;-48
2022/10/14 10:59:51;;;;;;;2.20;0.80;;;;;;;13.02;100.00;100533.58;1716528;80;21443;-49
2022/10/14 11:02:57;;;;;;;3.75;0.80;;;;;;;13.03;100.00;100533.99;1730082;80;23250;-50
2022/10/14 11:05:35;;;;;;;3.35;1.17;;;;;;;13.02;100.00;100535.41;1734375;80;21561;-49
2022/10/14 11:14:49;;;;;;;4.75;1.22;;;;;;;12.99;100.00;100524.77;1737323;80;21108;-49
2022/10/14 11:17:44;;;;;;;4.78;1.00;;;;;;;12.99;100.00;100518.00;1691056;80;21844;-49
2022/10/14 11:20:17;;;;;;;4.30;0.90;;;;;;;13.01;100.00;100522.40;1731615;80;22393;-49
2022/10/14 11:22:55;;;;;;;3.72;0.90;;;;;;;13.03;100.00;100520.48;1717682;80;21351;-49
2022/10/14 11:25:33;;;;;;;4.17;0.90;;;;;;;13.06;100.00;100526.23;1724410;80;21319;-48
2022/10/14 11:28:06;;;;;;;4.12;1.10;;;;;;;13.06;100.00;100514.95;1736097;80;21084;-50
2022/10/14 11:30:52;;;;;;;5.42;1.07;;;;;;;13.09;100.00;100516.64;1736877;80;21938;-49
2022/10/14 11:33:49;;;;;;;4.53;1.20;;;;;;;13.08;100.00;100514.87;1739505;80;21036;-50
2022/10/14 11:36:41;;;;;;;2.52;0.88;;;;;;;13.09;100.00;100511.23;1733059;80;21135;-50
2022/10/14 11:39:38;;;;;;;4.00;1.10;;;;;;;13.09;100.00;100512.11;1735400;80;21085;-49
2022/10/14 11:42:40;;;;;;;3.75;0.90;;;;;;;13.11;100.00;100510.19;1734140;80;21037;-48
2022/10/14 11:45:35;;;;;;;3.20;1.30;;;;;;;13.13;100.00;100515.09;1736750;80;22205;-51
2022/10/14 11:48:18;;;;;;;5.55;1.10;;;;;;;13.13;100.00;100509.69;1731474;80;21391;-48